Time;durP1;ratioP1;P1;durP2;ratioP2;P2;SDS_P1;SDS_P2;PMS_P1;PMS_P2;Temp;Humidity;BMP_temperature;BMP_pressure;BME280_temperature;BME280_humidity;BME280_pressure;Samples;Min_cycle;Max_cycle;Signal;HPM_P1;HPM_P2
2023/09/15 00:01:39;;;;;;;6.13;4.30;;;18.00;99.90;;;;;;5077722;28;20654;-77
2023/09/15 00:04:06;;;;;;;4.67;4.20;;;18.10;99.90;;;;;;5079460;28;20178;-77
2023/09/15 00:06:36;;;;;;;4.57;4.20;;;18.10;99.90;;;;;;5079283;28;20181;-77
2023/09/15 00:09:05;;;;;;;4.87;4.47;;;17.80;99.90;;;;;;5079148;28;20179;-77
2023/09/15 00:11:40;;;;;;;4.77;4.27;;;17.90;99.90;;;;;;5079268;28;20185;-78
2023/09/15 00:14:12;;;;;;;4.30;4.00;;;18.00;99.90;;;;;;5079256;28;20162;-79
2023/09/15 00:16:39;;;;;;;5.17;4.37;;;18.20;99.90;;;;;;5060130;28;20182;-77
2023/09/15 00:19:06;;;;;;;4.30;4.00;;;18.20;99.90;;;;;;5079728;28;20525;-79
2023/09/15 00:21:33;;;;;;;4.57;4.27;;;18.20;99.90;;;;;;5084626;28;20190;-77
2023/09/15 00:24:05;;;;;;;4.73;4.33;;;18.20;99.90;;;;;;5082370;28;20163;-76
2023/09/15 00:26:32;;;;;;;4.93;4.30;;;18.20;99.90;;;;;;5079460;28;20250;-78
2023/09/15 00:28:59;;;;;;;5.57;5.10;;;18.10;99.90;;;;;;5079380;28;20171;-77
2023/09/15 00:31:26;;;;;;;4.17;3.87;;;18.10;99.90;;;;;;5079884;28;20183;-79
2023/09/15 00:33:52;;;;;;;4.70;4.30;;;18.30;99.90;;;;;;5084814;28;20237;-77
2023/09/15 00:36:18;;;;;;;5.13;4.70;;;17.90;99.90;;;;;;5078907;28;20258;-76
2023/09/15 00:38:43;;;;;;;5.10;4.60;;;17.90;99.90;;;;;;5078769;28;20537;-77
2023/09/15 00:41:10;;;;;;;4.63;4.23;;;18.00;99.90;;;;;;5079272;28;20183;-78
2023/09/15 00:43:38;;;;;;;4.50;4.20;;;17.90;99.90;;;;;;5079002;28;20172;-76
2023/09/15 00:46:04;;;;;;;5.07;4.60;;;17.90;99.90;;;;;;5085605;28;20242;-77
2023/09/15 00:48:30;;;;;;;4.77;4.37;;;17.90;99.90;;;;;;5084406;28;20210;-78
2023/09/15 00:50:56;;;;;;;4.87;4.40;;;18.20;99.90;;;;;;5078368;28;20167;-77
2023/09/15 00:53:23;;;;;;;4.40;4.10;;;18.10;99.90;;;;;;5077995;28;20209;-77
2023/09/15 00:55:51;;;;;;;7.93;4.80;;;18.10;99.90;;;;;;5078196;28;20168;-77
2023/09/15 00:58:22;;;;;;;4.53;4.23;;;18.00;99.90;;;;;;5078403;28;20171;-77
2023/09/15 01:00:47;;;;;;;4.60;4.20;;;18.10;99.90;;;;;;5077570;28;20155;-78
2023/09/15 01:03:21;;;;;;;5.23;4.47;;;18.10;99.90;;;;;;5079327;28;20282;-78
2023/09/15 01:05:48;;;;;;;6.60;4.90;;;18.10;99.90;;;;;;5097292;28;20179;-78
2023/09/15 01:08:14;;;;;;;4.60;4.30;;;18.20;99.90;;;;;;5095669;28;20199;-79
2023/09/15 01:10:40;;;;;;;4.50;4.10;;;18.00;99.90;;;;;;5097295;28;20171;-77
2023/09/15 01:13:06;;;;;;;4.67;4.37;;;18.00;99.90;;;;;;5096090;28;20201;-76
2023/09/15 01:15:53;;;;;;;4.80;4.40;;;18.00;99.90;;;;;;5092534;28;20173;-77
2023/09/15 01:18:41;;;;;;;5.50;4.50;;;17.70;99.90;;;;;;5092147;28;20175;-77
2023/09/15 01:21:34;;;;;;;4.97;4.47;;;17.80;99.90;;;;;;5082230;28;20224;-78
2023/09/15 01:24:14;;;;;;;4.37;4.03;;;17.90;99.90;;;;;;5092770;28;20183;-78
2023/09/15 01:26:46;;;;;;;5.07;4.60;;;18.10;99.90;;;;;;5077045;28;20637;-78
2023/09/15 01:29:40;;;;;;;5.50;4.33;;;18.10;99.90;;;;;;5079097;28;20186;-78
2023/09/15 01:32:08;;;;;;;4.50;4.20;;;18.10;99.90;;;;;;5082028;28;20635;-80
2023/09/15 01:34:37;;;;;;;4.97;4.47;;;18.10;99.90;;;;;;5082949;28;20211;-78
2023/09/15 01:37:04;;;;;;;5.53;4.60;;;18.10;99.90;;;;;;5082606;28;20179;-77
2023/09/15 01:39:30;;;;;;;4.97;4.57;;;18.00;99.90;;;;;;5083182;28;20174;-78
2023/09/15 01:42:00;;;;;;;5.30;4.23;;;18.00;99.90;;;;;;5065792;28;20183;-78
2023/09/15 01:44:27;;;;;;;5.03;4.50;;;18.10;99.90;;;;;;5081738;28;20183;-78
2023/09/15 01:46:53;;;;;;;5.10;4.70;;;18.10;99.90;;;;;;5063975;28;20206;-78
2023/09/15 01:49:21;;;;;;;5.10;4.60;;;18.10;99.90;;;;;;5082017;28;20877;-79
2023/09/15 01:51:48;;;;;;;5.67;5.03;;;17.90;99.90;;;;;;5081950;28;20190;-78
2023/09/15 01:54:15;;;;;;;4.47;4.07;;;17.80;99.90;;;;;;5082113;28;20178;-79
2023/09/15 01:56:41;;;;;;;7.43;4.43;;;17.90;99.90;;;;;;5089237;28;20167;-77
2023/09/15 01:59:07;;;;;;;5.80;4.90;;;17.70;99.90;;;;;;5064236;28;20190;-76
2023/09/15 02:01:34;;;;;;;4.90;4.47;;;17.80;99.90;;;;;;5082214;28;20198;-77
2023/09/15 02:03:59;;;;;;;6.07;4.40;;;17.80;99.90;;;;;;5082753;28;20282;-77
2023/09/15 02:06:25;;;;;;;6.03;4.70;;;17.60;99.90;;;;;;5083105;28;20208;-77
2023/09/15 02:08:51;;;;;;;5.40;4.77;;;17.40;99.90;;;;;;5093469;28;20218;-79
2023/09/15 02:11:19;;;;;;;4.77;4.37;;;17.30;99.90;;;;;;5091401;28;20170;-77
2023/09/15 02:13:45;;;;;;;5.30;4.87;;;17.50;99.90;;;;;;5084973;28;20179;-76
2023/09/15 02:16:11;;;;;;;4.97;4.53;;;17.30;99.90;;;;;;5081832;28;20202;-79
2023/09/15 02:18:40;;;;;;;4.83;4.43;;;17.30;99.90;;;;;;5063947;28;20186;-80
2023/09/15 02:21:06;;;;;;;5.27;4.50;;;17.10;99.90;;;;;;5083066;28;20209;-78
2023/09/15 02:23:34;;;;;;;4.73;4.23;;;17.00;99.90;;;;;;5093165;28;20262;-78
2023/09/15 02:26:04;;;;;;;5.13;4.37;;;17.40;99.90;;;;;;5083000;28;20175;-77
2023/09/15 02:28:31;;;;;;;9.47;4.13;;;17.10;99.90;;;;;;5080786;28;20234;-77
2023/09/15 02:30:57;;;;;;;3.83;3.53;;;17.10;99.90;;;;;;5082172;28;20292;-78
2023/09/15 02:33:25;;;;;;;4.97;4.07;;;16.90;99.90;;;;;;5082211;28;20175;-77
2023/09/15 02:35:51;;;;;;;5.80;4.30;;;17.10;99.90;;;;;;5082723;28;20253;-78
2023/09/15 02:38:17;;;;;;;4.30;4.00;;;16.90;99.90;;;;;;5081253;28;20171;-77
2023/09/15 02:40:43;;;;;;;4.77;4.37;;;17.00;99.90;;;;;;5082124;28;20175;-77
2023/09/15 02:43:09;;;;;;;4.20;3.90;;;17.00;99.90;;;;;;5082191;28;20623;-79
2023/09/15 02:45:35;;;;;;;4.70;4.40;;;17.10;99.90;;;;;;5082773;28;20226;-78
2023/09/15 02:48:03;;;;;;;4.57;4.17;;;16.90;99.90;;;;;;5083771;28;20244;-78
2023/09/15 02:50:29;;;;;;;4.63;4.20;;;17.00;99.90;;;;;;5092274;28;20233;-76
2023/09/15 02:52:55;;;;;;;4.97;4.57;;;17.10;99.90;;;;;;5089487;28;20178;-77
2023/09/15 02:55:22;;;;;;;5.27;4.43;;;17.00;99.90;;;;;;5088984;28;20176;-78
2023/09/15 02:57:55;;;;;;;4.73;4.43;;;17.20;99.90;;;;;;5084588;28;20235;-78
2023/09/15 03:00:21;;;;;;;4.90;4.30;;;17.20;99.90;;;;;;5091757;28;20178;-77
2023/09/15 03:02:49;;;;;;;4.80;4.40;;;17.30;99.90;;;;;;5083142;28;20177;-77
2023/09/15 03:05:15;;;;;;;6.43;4.57;;;17.30;99.90;;;;;;5082735;28;20173;-78
2023/09/15 03:07:42;;;;;;;4.70;4.40;;;17.40;99.90;;;;;;5083142;28;20230;-77
2023/09/15 03:10:09;;;;;;;4.63;4.33;;;17.50;99.90;;;;;;5081298;28;20179;-77
2023/09/15 03:12:36;;;;;;;5.90;4.20;;;17.60;99.90;;;;;;5081190;28;20182;-77
2023/09/15 03:15:07;;;;;;;5.00;4.50;;;17.60;99.90;;;;;;5065020;28;20527;-78
2023/09/15 03:17:34;;;;;;;4.93;4.63;;;17.80;99.90;;;;;;5064810;28;20195;-78
2023/09/15 03:20:09;;;;;;;5.73;4.23;;;17.50;99.90;;;;;;5080974;28;20179;-80
2023/09/15 03:22:35;;;;;;;4.87;4.30;;;17.70;99.90;;;;;;5080933;28;20277;-74
2023/09/15 03:25:02;;;;;;;4.30;4.00;;;17.60;99.90;;;;;;5083440;28;20173;-75
2023/09/15 03:27:28;;;;;;;6.37;4.50;;;17.50;99.90;;;;;;5081098;28;20207;-77
2023/09/15 03:29:53;;;;;;;5.53;5.13;;;17.50;99.90;;;;;;5076864;28;20195;-78
2023/09/15 03:32:19;;;;;;;5.27;4.77;;;17.40;99.90;;;;;;5079582;28;20591;-76
2023/09/15 03:34:45;;;;;;;5.27;4.80;;;17.20;99.90;;;;;;5062328;28;20235;-78
2023/09/15 03:37:12;;;;;;;5.27;4.77;;;17.40;99.90;;;;;;5080374;28;20247;-76
2023/09/15 03:39:37;;;;;;;4.43;4.13;;;17.50;99.90;;;;;;5080042;28;20254;-78
2023/09/15 03:42:04;;;;;;;5.13;4.73;;;17.60;99.90;;;;;;5078939;28;20221;-78
2023/09/15 03:44:32;;;;;;;5.17;4.53;;;17.50;99.90;;;;;;5077987;28;20182;-77
2023/09/15 03:46:58;;;;;;;5.40;4.93;;;17.60;99.90;;;;;;5079031;28;20208;-79
2023/09/15 03:49:24;;;;;;;8.07;5.07;;;17.60;99.90;;;;;;5078991;28;20179;-77
2023/09/15 03:51:52;;;;;;;4.93;4.47;;;17.60;99.90;;;;;;5078680;28;20178;-78
2023/09/15 03:54:18;;;;;;;4.93;4.63;;;17.60;99.90;;;;;;5077324;28;20178;-77
2023/09/15 03:56:44;;;;;;;6.10;4.80;;;17.50;99.90;;;;;;5078653;28;20670;-77
2023/09/15 03:59:10;;;;;;;5.70;5.10;;;17.60;99.90;;;;;;5084112;28;20171;-78
2023/09/15 04:01:35;;;;;;;4.53;4.23;;;17.60;99.90;;;;;;5090280;28;20561;-78
2023/09/15 04:04:02;;;;;;;4.60;4.30;;;17.60;99.90;;;;;;5082518;28;20651;-77
2023/09/15 04:06:30;;;;;;;5.07;4.67;;;17.40;99.90;;;;;;5079211;28;20163;-77
2023/09/15 04:08:57;;;;;;;4.70;4.23;;;17.50;99.90;;;;;;5079285;28;20218;-77
2023/09/15 04:11:22;;;;;;;6.00;4.77;;;17.50;99.90;;;;;;5079735;28;20178;-78
2023/09/15 04:13:48;;;;;;;4.60;4.20;;;17.60;99.90;;;;;;5079163;28;20179;-78
2023/09/15 04:16:14;;;;;;;7.47;4.57;;;17.70;99.90;;;;;;5079498;28;20226;-76
2023/09/15 04:18:40;;;;;;;5.43;4.70;;;17.60;99.90;;;;;;5061305;28;20210;-77
2023/09/15 04:21:06;;;;;;;4.87;4.50;;;17.80;99.90;;;;;;5078981;28;20225;-76
2023/09/15 04:23:32;;;;;;;4.80;4.33;;;17.70;99.90;;;;;;5079659;28;20175;-78
2023/09/15 04:25:58;;;;;;;5.97;4.70;;;17.60;99.90;;;;;;5085166;28;20177;-77
2023/09/15 04:28:25;;;;;;;6.87;4.93;;;17.40;99.90;;;;;;5070078;28;20270;-78
2023/09/15 04:30:50;;;;;;;5.43;4.93;;;17.50;99.90;;;;;;5080763;28;20186;-78
2023/09/15 04:33:16;;;;;;;6.23;4.87;;;17.30;99.90;;;;;;5086059;28;20177;-77
2023/09/15 04:35:42;;;;;;;6.13;4.73;;;17.30;99.90;;;;;;5090633;28;20215;-79
2023/09/15 04:38:09;;;;;;;5.17;4.77;;;17.50;99.90;;;;;;5091142;28;20190;-78
2023/09/15 04:40:36;;;;;;;5.73;4.93;;;17.30;99.90;;;;;;5089675;28;20178;-77
2023/09/15 04:43:07;;;;;;;5.90;4.90;;;17.30;99.90;;;;;;5080896;28;20183;-78
2023/09/15 04:45:33;;;;;;;5.40;5.00;;;17.30;99.90;;;;;;5078909;28;20162;-76
2023/09/15 04:47:58;;;;;;;5.40;4.90;;;17.30;99.90;;;;;;5078359;28;20213;-77
2023/09/15 04:50:24;;;;;;;5.43;4.93;;;17.40;99.90;;;;;;5059238;28;20175;-78
2023/09/15 04:52:50;;;;;;;5.13;4.73;;;17.40;99.90;;;;;;5073271;28;20179;-79
2023/09/15 04:55:16;;;;;;;5.40;4.90;;;17.40;99.90;;;;;;5074224;28;20174;-77
2023/09/15 04:57:41;;;;;;;5.00;4.60;;;17.40;99.90;;;;;;5074960;28;20178;-79
2023/09/15 05:00:12;;;;;;;4.70;4.30;;;17.50;99.90;;;;;;5075727;28;20285;-77
2023/09/15 05:02:42;;;;;;;6.10;4.93;;;17.60;99.90;;;;;;5073967;28;20167;-77
2023/09/15 05:05:08;;;;;;;5.33;4.83;;;17.40;99.90;;;;;;5071509;28;20220;-78
2023/09/15 05:07:34;;;;;;;5.87;5.37;;;17.60;99.90;;;;;;5073626;28;20686;-77
2023/09/15 05:10:00;;;;;;;5.00;4.60;;;17.70;99.90;;;;;;5073763;28;20186;-77
2023/09/15 05:12:26;;;;;;;5.53;4.27;;;17.70;99.90;;;;;;5073547;28;20175;-78
2023/09/15 05:14:52;;;;;;;4.70;4.30;;;17.90;99.90;;;;;;5073478;28;20237;-77
2023/09/15 05:17:19;;;;;;;4.83;4.43;;;17.90;99.90;;;;;;5073713;28;20174;-79
2023/09/15 05:19:47;;;;;;;4.80;4.43;;;17.90;99.90;;;;;;5055419;28;20179;-78
2023/09/15 05:22:12;;;;;;;4.90;4.50;;;17.70;99.90;;;;;;5072631;28;20214;-77
2023/09/15 05:24:38;;;;;;;5.07;4.63;;;17.70;99.90;;;;;;5071243;28;20211;-79
2023/09/15 05:27:04;;;;;;;5.23;4.83;;;17.60;99.90;;;;;;5059581;28;20210;-78
2023/09/15 05:29:30;;;;;;;5.30;4.83;;;17.80;99.90;;;;;;5076236;28;20186;-77
2023/09/15 05:31:56;;;;;;;5.50;4.70;;;17.70;99.90;;;;;;5065178;28;20639;-76
2023/09/15 05:34:22;;;;;;;9.73;5.10;;;17.70;99.90;;;;;;5087072;28;20974;-78
2023/09/15 05:36:49;;;;;;;7.50;5.00;;;18.20;99.90;;;;;;5073626;28;20597;-78
2023/09/15 05:39:15;;;;;;;4.73;4.33;;;18.20;99.90;;;;;;5073241;28;20657;-77
2023/09/15 05:41:40;;;;;;;6.70;5.17;;;18.00;99.90;;;;;;5074597;28;20172;-78
2023/09/15 05:44:06;;;;;;;5.07;4.67;;;18.10;99.90;;;;;;5055793;28;20179;-77
2023/09/15 05:46:32;;;;;;;5.87;5.37;;;18.20;99.90;;;;;;5073173;28;20179;-79
2023/09/15 05:48:58;;;;;;;5.30;4.90;;;18.10;99.90;;;;;;5073162;28;20736;-77
2023/09/15 05:51:24;;;;;;;6.63;5.20;;;18.20;99.90;;;;;;5073690;28;20167;-77
2023/09/15 05:53:49;;;;;;;4.90;4.50;;;18.20;99.90;;;;;;5074784;28;20239;-80
2023/09/15 05:56:18;;;;;;;5.00;4.60;;;18.20;99.90;;;;;;5084796;28;20172;-77
2023/09/15 05:58:44;;;;;;;5.40;4.90;;;18.30;99.90;;;;;;5089612;28;20174;-79
2023/09/15 06:01:09;;;;;;;6.23;5.00;;;18.40;99.90;;;;;;5059049;28;20654;-78
2023/09/15 06:03:36;;;;;;;4.97;4.53;;;18.40;99.90;;;;;;5079470;28;20155;-76
2023/09/15 06:06:02;;;;;;;5.27;4.87;;;18.50;99.90;;;;;;5083734;28;20630;-77
2023/09/15 06:08:28;;;;;;;5.20;4.80;;;18.40;99.90;;;;;;5056580;28;20207;-77
2023/09/15 06:10:54;;;;;;;4.83;4.43;;;18.40;99.90;;;;;;5073811;28;20172;-77
2023/09/15 06:13:20;;;;;;;5.50;5.00;;;18.10;99.90;;;;;;5073314;28;20179;-78
2023/09/15 06:15:45;;;;;;;5.20;4.80;;;18.10;99.90;;;;;;5088174;28;20167;-79
2023/09/15 06:18:11;;;;;;;4.87;4.57;;;18.10;99.90;;;;;;5084253;28;20178;-77
2023/09/15 06:20:38;;;;;;;4.47;4.13;;;18.20;99.90;;;;;;5080399;28;20159;-77
2023/09/15 06:23:04;;;;;;;5.03;4.63;;;18.40;99.90;;;;;;5086029;28;20167;-79
2023/09/15 06:25:32;;;;;;;4.73;4.43;;;18.30;99.90;;;;;;5081112;28;20185;-79
2023/09/15 06:27:59;;;;;;;6.50;4.23;;;18.30;99.90;;;;;;5064122;28;20247;-78
2023/09/15 06:30:27;;;;;;;4.90;4.50;;;18.30;99.90;;;;;;5059166;28;20210;-77
2023/09/15 06:32:55;;;;;;;5.57;4.73;;;18.30;99.90;;;;;;5058385;28;20195;-77
2023/09/15 06:35:24;;;;;;;5.47;5.07;;;18.20;99.90;;;;;;5072810;28;20223;-76
2023/09/15 06:37:53;;;;;;;5.63;5.13;;;18.10;99.90;;;;;;5082341;28;20187;-77
2023/09/15 06:40:18;;;;;;;6.40;5.00;;;18.00;99.90;;;;;;5094092;28;20178;-78
2023/09/15 06:42:45;;;;;;;9.93;5.37;;;18.00;99.90;;;;;;5117728;28;20150;-78
2023/09/15 06:45:11;;;;;;;11.27;6.13;;;18.10;99.90;;;;;;5102989;28;20175;-79
2023/09/15 06:47:37;;;;;;;6.07;5.47;;;18.10;99.90;;;;;;5099031;28;20244;-77
2023/09/15 06:50:03;;;;;;;6.03;5.07;;;18.00;99.90;;;;;;5100344;28;20186;-77
2023/09/15 06:52:30;;;;;;;6.10;5.37;;;17.90;99.90;;;;;;5077097;28;20229;-78
2023/09/15 06:54:56;;;;;;;7.97;5.60;;;18.00;99.90;;;;;;5094741;28;20167;-76
2023/09/15 06:57:22;;;;;;;5.80;5.30;;;18.10;99.90;;;;;;5095323;28;20168;-75
2023/09/15 06:59:48;;;;;;;6.13;5.53;;;18.20;99.90;;;;;;5098001;28;20193;-79
2023/09/15 07:02:13;;;;;;;6.20;5.20;;;18.30;99.90;;;;;;5087924;28;20257;-79
2023/09/15 07:04:39;;;;;;;5.80;5.30;;;18.30;99.90;;;;;;5062422;28;20175;-76
2023/09/15 07:07:05;;;;;;;5.93;5.20;;;18.30;99.90;;;;;;5080773;28;20222;-76
2023/09/15 07:09:31;;;;;;;5.87;5.37;;;18.40;99.90;;;;;;5089638;28;20190;-79
2023/09/15 07:11:56;;;;;;;6.17;5.57;;;18.50;99.90;;;;;;5078298;28;20179;-76
2023/09/15 07:14:22;;;;;;;10.03;5.63;;;18.50;99.90;;;;;;5075805;28;20663;-79
2023/09/15 07:16:48;;;;;;;7.13;5.07;;;18.40;99.90;;;;;;5076184;28;20168;-79
2023/09/15 07:19:14;;;;;;;5.03;4.57;;;18.50;99.90;;;;;;5076511;28;20194;-77
2023/09/15 07:21:42;;;;;;;5.13;3.77;;;18.60;99.90;;;;;;5075770;28;20175;-77
2023/09/15 07:24:08;;;;;;;4.80;4.40;;;18.60;99.90;;;;;;5059413;28;20201;-77
2023/09/15 07:26:34;;;;;;;4.23;3.93;;;18.60;99.90;;;;;;5084472;28;20554;-78
2023/09/15 07:29:00;;;;;;;4.40;4.10;;;18.70;99.90;;;;;;5080278;28;20207;-76
2023/09/15 07:31:27;;;;;;;4.07;3.83;;;18.80;99.90;;;;;;5080073;28;20159;-76
2023/09/15 07:33:53;;;;;;;3.93;3.67;;;19.00;99.90;;;;;;5076441;28;20215;-77
2023/09/15 07:36:19;;;;;;;5.37;4.97;;;19.10;99.90;;;;;;5077442;28;20171;-78
2023/09/15 07:38:46;;;;;;;5.20;4.70;;;19.10;99.90;;;;;;5076757;28;20603;-75
2023/09/15 07:41:13;;;;;;;4.60;4.30;;;19.30;99.90;;;;;;5066664;28;20707;-76
2023/09/15 07:43:39;;;;;;;4.40;3.90;;;19.40;99.90;;;;;;5062911;28;20229;-76
2023/09/15 07:46:05;;;;;;;5.53;4.43;;;19.40;99.90;;;;;;5076112;28;20167;-76
2023/09/15 07:48:31;;;;;;;4.97;3.80;;;19.70;99.90;;;;;;5074370;28;20199;-77
2023/09/15 07:50:57;;;;;;;4.27;3.63;;;19.80;99.90;;;;;;5080688;28;20175;-76
2023/09/15 07:53:23;;;;;;;4.60;4.20;;;19.80;99.90;;;;;;5070301;28;20283;-78
2023/09/15 07:55:49;;;;;;;6.30;3.70;;;20.30;99.90;;;;;;5075563;28;20167;-81
2023/09/15 07:58:14;;;;;;;4.10;3.80;;;19.80;99.90;;;;;;5076184;28;20328;-80
2023/09/15 08:00:40;;;;;;;4.20;3.80;;;20.00;99.90;;;;;;5057390;28;20183;-81
2023/09/15 08:03:06;;;;;;;4.33;3.83;;;20.00;99.90;;;;;;5076293;28;20256;-80
2023/09/15 08:05:32;;;;;;;4.13;3.60;;;19.90;99.90;;;;;;5076361;28;20195;-80
2023/09/15 08:07:58;;;;;;;4.30;3.90;;;20.10;99.90;;;;;;5081063;28;20749;-82
2023/09/15 08:10:24;;;;;;;4.00;3.70;;;20.20;99.90;;;;;;5075769;28;20258;-80
2023/09/15 08:12:52;;;;;;;3.67;3.37;;;20.20;99.90;;;;;;5076161;28;20201;-79
2023/09/15 08:15:19;;;;;;;4.70;2.90;;;20.40;99.90;;;;;;5075550;28;20163;-79
2023/09/15 08:17:46;;;;;;;3.70;3.40;;;20.60;99.90;;;;;;5075178;28;20526;-82
2023/09/15 08:20:11;;;;;;;3.50;3.30;;;20.90;99.90;;;;;;5075779;28;20175;-82
2023/09/15 08:22:38;;;;;;;3.20;3.00;;;20.90;99.90;;;;;;5077811;28;20194;-79
2023/09/15 08:25:05;;;;;;;3.40;3.20;;;20.80;99.90;;;;;;5075844;28;20175;-81
2023/09/15 08:27:31;;;;;;;4.07;3.60;;;21.20;99.90;;;;;;5059040;28;20234;-80
2023/09/15 08:29:57;;;;;;;5.90;3.40;;;21.30;99.90;;;;;;5076999;28;20174;-80
2023/09/15 08:32:22;;;;;;;3.60;3.30;;;21.50;99.90;;;;;;5078049;28;20182;-80
2023/09/15 08:34:48;;;;;;;3.70;3.50;;;21.60;99.90;;;;;;5077478;28;20229;-81
2023/09/15 08:37:14;;;;;;;3.63;3.33;;;21.70;99.90;;;;;;5075761;28;20645;-78
2023/09/15 08:39:40;;;;;;;3.43;3.23;;;21.70;99.90;;;;;;5078586;28;20255;-81
2023/09/15 08:42:17;;;;;;;3.20;3.00;;;21.70;99.90;;;;;;5088568;28;20171;-80
2023/09/15 08:44:43;;;;;;;3.50;3.30;;;21.60;99.90;;;;;;5078369;28;20158;-81
2023/09/15 08:47:09;;;;;;;3.60;3.30;;;21.60;99.90;;;;;;5081909;28;20223;-81
2023/09/15 08:49:36;;;;;;;3.63;3.33;;;21.20;99.90;;;;;;5080538;28;20186;-80
2023/09/15 08:52:04;;;;;;;2.97;2.80;;;21.10;99.90;;;;;;5077185;28;20170;-81
2023/09/15 08:54:31;;;;;;;3.47;2.77;;;20.90;99.90;;;;;;5076400;28;20546;-80
2023/09/15 08:56:58;;;;;;;3.50;3.20;;;20.80;99.90;;;;;;5076967;28;20171;-81
2023/09/15 08:59:24;;;;;;;3.17;2.97;;;20.70;99.90;;;;;;5074812;28;20232;-82
2023/09/15 09:01:51;;;;;;;3.40;3.20;;;20.70;99.90;;;;;;5058969;28;20246;-79
2023/09/15 09:04:17;;;;;;;3.17;2.97;;;20.60;99.90;;;;;;5076203;28;20220;-81
2023/09/15 09:06:43;;;;;;;3.33;3.13;;;20.70;99.90;;;;;;5059306;28;20183;-81
2023/09/15 09:09:12;;;;;;;4.17;3.43;;;20.70;99.90;;;;;;5076986;28;20186;-81
2023/09/15 09:11:45;;;;;;;3.07;2.97;;;20.70;99.90;;;;;;5075893;28;20183;-81
2023/09/15 09:14:46;;;;;;;3.20;3.00;;;20.90;99.90;;;;;;5077108;28;20201;-80
2023/09/15 09:17:18;;;;;;;3.67;3.37;;;20.60;99.90;;;;;;5040904;28;20186;-82
2023/09/15 09:19:57;;;;;;;3.40;3.13;;;20.70;99.90;;;;;;5071390;28;20218;-80
2023/09/15 09:22:34;;;;;;;2.53;2.43;;;20.70;99.90;;;;;;5062020;28;20218;-81
2023/09/15 09:25:33;;;;;;;3.20;2.90;;;20.80;99.90;;;;;;5082124;28;20303;-78
2023/09/15 09:28:19;;;;;;;2.53;2.43;;;20.70;99.90;;;;;;5079840;28;20218;-82
2023/09/15 09:31:26;;;;;;;2.73;2.60;;;20.80;99.90;;;;;;5081686;28;20206;-80
2023/09/15 09:34:05;;;;;;;2.50;2.30;;;20.80;99.90;;;;;;5077669;28;20278;-81
2023/09/15 09:36:32;;;;;;;2.97;2.70;;;21.10;99.90;;;;;;5073825;28;20194;-81
2023/09/15 09:39:24;;;;;;;2.40;2.30;;;21.20;99.90;;;;;;5076500;28;20159;-81
2023/09/15 09:42:28;;;;;;;3.23;2.80;;;21.50;99.90;;;;;;5057820;28;20175;-81
2023/09/15 09:44:55;;;;;;;3.20;3.00;;;21.50;99.90;;;;;;5057795;28;20210;-84
2023/09/15 09:47:30;;;;;;;3.53;2.77;;;21.60;99.90;;;;;;5077072;28;20226;-80
2023/09/15 09:50:04;;;;;;;2.60;2.50;;;21.70;99.90;;;;;;5042001;28;20191;-80
2023/09/15 09:52:31;;;;;;;3.70;3.00;;;22.00;99.90;;;;;;5063017;28;20240;-80
2023/09/15 09:55:00;;;;;;;3.30;3.10;;;21.90;99.90;;;;;;5079563;28;20194;-80
2023/09/15 09:57:26;;;;;;;3.03;2.83;;;22.00;99.90;;;;;;5080263;28;20250;-81
2023/09/15 09:59:53;;;;;;;3.13;3.00;;;21.90;99.90;;;;;;5080633;28;20214;-80
2023/09/15 10:02:19;;;;;;;2.80;2.60;;;21.90;99.90;;;;;;5081725;28;20642;-79
2023/09/15 10:04:45;;;;;;;2.73;2.60;;;22.10;99.90;;;;;;5080431;28;20175;-80
2023/09/15 10:07:11;;;;;;;2.70;2.60;;;22.00;99.90;;;;;;5080401;28;20227;-80
2023/09/15 10:09:39;;;;;;;2.97;2.77;;;22.10;99.90;;;;;;5086287;28;20179;-81
2023/09/15 10:12:05;;;;;;;2.97;2.70;;;22.20;99.90;;;;;;5086831;28;20167;-82
2023/09/15 10:14:31;;;;;;;3.20;2.70;;;22.30;99.90;;;;;;5085940;28;20167;-82
2023/09/15 10:16:58;;;;;;;2.83;2.67;;;22.20;99.90;;;;;;5084508;28;20167;-81
2023/09/15 10:19:25;;;;;;;2.60;2.50;;;22.20;99.90;;;;;;5059748;28;20265;-80
2023/09/15 10:21:51;;;;;;;2.80;2.70;;;22.40;99.90;;;;;;5060438;28;20171;-81
2023/09/15 10:24:17;;;;;;;2.65;2.55;;;22.50;99.90;;;;;;5059491;28;20262;-80
2023/09/15 10:26:44;;;;;;;2.90;2.80;;;22.90;99.90;;;;;;5060325;28;20252;-80
2023/09/15 10:29:14;;;;;;;2.78;2.67;;;22.90;99.90;;;;;;5059417;28;20387;-81
2023/09/15 10:31:45;;;;;;;2.88;2.53;;;22.90;99.90;;;;;;5078781;28;20711;-78
2023/09/15 10:34:23;;;;;;;3.10;2.80;;;22.90;99.90;;;;;;5076282;28;20247;-81
2023/09/15 10:37:10;;;;;;;4.27;4.00;;;22.60;99.90;;;;;;5077269;28;20178;-81
2023/09/15 10:39:41;;;;;;;2.83;2.70;;;22.40;99.90;;;;;;5058792;28;20187;-79
2023/09/15 10:42:15;;;;;;;3.08;2.92;;;22.20;99.90;;;;;;5060035;28;20183;-80
2023/09/15 10:45:20;;;;;;;2.83;2.63;;;22.40;99.90;;;;;;5076932;28;20174;-82
2023/09/15 10:47:58;;;;;;;2.80;2.60;;;22.60;99.90;;;;;;5056764;28;20565;-82
2023/09/15 10:50:34;;;;;;;3.20;2.88;;;22.60;99.90;;;;;;5059700;28;20187;-80
2023/09/15 10:53:10;;;;;;;2.60;2.50;;;22.40;99.90;;;;;;5075965;28;20210;-80
2023/09/15 10:55:37;;;;;;;3.37;2.60;;;22.60;99.90;;;;;;5086108;28;20185;-80
2023/09/15 10:58:04;;;;;;;2.70;2.60;;;22.90;99.90;;;;;;5087530;28;20258;-79
2023/09/15 11:00:33;;;;;;;3.00;2.80;;;22.90;99.90;;;;;;5080596;28;20171;-82
2023/09/15 11:03:01;;;;;;;2.65;2.55;;;23.20;99.90;;;;;;5076656;28;20221;-83
2023/09/15 11:05:27;;;;;;;3.75;2.80;;;22.90;99.90;;;;;;5064890;28;20607;-80
2023/09/15 11:07:57;;;;;;;3.20;2.90;;;23.10;99.90;;;;;;5092724;28;20254;-78
2023/09/15 11:10:31;;;;;;;3.13;2.85;;;23.00;99.90;;;;;;5082906;28;20611;-80
2023/09/15 11:13:03;;;;;;;3.10;2.80;;;23.20;99.90;;;;;;5058594;28;20702;-83
2023/09/15 11:15:29;;;;;;;3.00;2.80;;;23.10;99.90;;;;;;5076764;28;20221;-80
2023/09/15 11:17:55;;;;;;;2.63;2.53;;;23.20;99.90;;;;;;5058444;28;20176;-80
2023/09/15 11:20:21;;;;;;;3.10;2.90;;;23.20;99.90;;;;;;5087648;28;20182;-77
2023/09/15 11:22:47;;;;;;;3.25;3.05;;;23.20;99.90;;;;;;5082654;28;20188;-81
2023/09/15 11:25:15;;;;;;;3.10;2.90;;;23.30;99.90;;;;;;5080359;28;20174;-82
2023/09/15 11:27:41;;;;;;;3.70;3.50;;;23.50;99.90;;;;;;5080605;28;20206;-82
2023/09/15 11:30:09;;;;;;;3.13;2.92;;;23.40;99.90;;;;;;5080693;28;20171;-83
2023/09/15 11:32:35;;;;;;;5.82;5.28;;;23.70;99.90;;;;;;5084699;28;20171;-80
2023/09/15 11:35:04;;;;;;;5.63;5.05;;;23.60;99.90;;;;;;5090319;28;20219;-80
2023/09/15 11:37:31;;;;;;;3.08;2.92;;;23.80;99.90;;;;;;5075830;28;20210;-82
2023/09/15 11:39:56;;;;;;;3.63;2.70;;;23.50;99.90;;;;;;5074867;28;20174;-82
2023/09/15 11:42:24;;;;;;;2.63;2.53;;;23.70;99.90;;;;;;5075027;28;20175;-80
2023/09/15 11:44:50;;;;;;;2.55;2.45;;;23.60;99.90;;;;;;5076711;28;20160;-81
2023/09/15 11:47:17;;;;;;;2.83;2.70;;;23.60;99.90;;;;;;5061879;28;20234;-80
2023/09/15 11:49:43;;;;;;;2.72;2.53;;;24.00;99.90;;;;;;5096022;28;20182;-79
2023/09/15 11:52:10;;;;;;;2.72;2.63;;;23.90;99.90;;;;;;5097033;28;20219;-77
2023/09/15 11:54:36;;;;;;;2.50;2.40;;;23.90;99.90;;;;;;5098412;28;20227;-79
2023/09/15 11:57:02;;;;;;;2.40;2.30;;;23.80;99.90;;;;;;5081521;28;20171;-80
2023/09/15 11:59:29;;;;;;;2.15;2.05;;;23.90;99.90;;;;;;5098261;28;20151;-79
2023/09/15 12:01:58;;;;;;;2.50;2.40;;;23.90;99.90;;;;;;5097021;28;20179;-80
2023/09/15 12:04:24;;;;;;;2.33;2.13;;;23.90;99.90;;;;;;5083585;28;20156;-82
2023/09/15 12:06:50;;;;;;;2.20;2.10;;;24.20;99.90;;;;;;5075897;28;20250;-81
2023/09/15 12:09:19;;;;;;;2.28;2.17;;;24.20;99.90;;;;;;5075370;28;20267;-78
2023/09/15 12:11:45;;;;;;;2.47;2.38;;;24.20;99.90;;;;;;5074332;28;20202;-81
2023/09/15 12:14:15;;;;;;;2.42;2.33;;;24.20;99.90;;;;;;5073976;28;20171;-81
2023/09/15 12:16:48;;;;;;;2.80;2.30;;;23.90;99.90;;;;;;5074045;28;20594;-81
2023/09/15 12:19:16;;;;;;;2.47;2.38;;;23.90;99.90;;;;;;5074052;28;20174;-82
2023/09/15 12:21:59;;;;;;;2.25;2.25;;;24.10;99.90;;;;;;5076723;28;20225;-81
2023/09/15 12:24:28;;;;;;;2.58;2.38;;;23.90;99.90;;;;;;5076515;28;20155;-83
2023/09/15 12:26:54;;;;;;;2.70;2.50;;;24.20;99.90;;;;;;5059413;28;20236;-80
2023/09/15 12:29:22;;;;;;;2.13;2.00;;;24.20;99.90;;;;;;5075081;28;20183;-83
2023/09/15 12:31:49;;;;;;;2.70;2.60;;;24.40;99.90;;;;;;5073778;28;20826;-82
2023/09/15 12:34:20;;;;;;;3.20;3.00;;;24.50;99.90;;;;;;5023331;28;1859278;-82
2023/09/15 12:36:47;;;;;;;3.30;3.10;;;24.60;99.90;;;;;;5079312;28;20518;-82
2023/09/15 12:39:14;;;;;;;2.95;2.85;;;24.40;99.90;;;;;;5074709;28;20186;-80
2023/09/15 12:41:40;;;;;;;2.55;2.45;;;24.30;99.90;;;;;;5074827;28;20212;-81
2023/09/15 12:44:05;;;;;;;3.83;3.03;;;24.40;99.90;;;;;;5074478;28;20179;-83
2023/09/15 12:46:32;;;;;;;2.75;2.60;;;24.50;99.90;;;;;;5097221;28;20202;-81
2023/09/15 12:49:00;;;;;;;2.95;2.50;;;24.40;99.90;;;;;;5076011;28;20203;-82
2023/09/15 12:51:26;;;;;;;2.50;2.40;;;24.30;99.90;;;;;;5074418;28;20167;-80